createdAt,value
2017-10-02T00:00:27.471Z,15.33
2017-10-02T00:02:55.613Z,14.07
2017-10-02T00:05:23.768Z,13.33
2017-10-02T00:07:52.114Z,13.60
2017-10-02T00:10:20.261Z,14.30
2017-10-02T00:12:48.970Z,15.60
2017-10-02T00:15:17.140Z,14.33
2017-10-02T00:17:45.292Z,14.40
2017-10-02T00:20:13.385Z,13.97
2017-10-02T00:22:41.527Z,15.13
2017-10-02T00:25:09.754Z,14.47
2017-10-02T00:27:37.945Z,15.17
2017-10-02T00:30:06.199Z,14.60
2017-10-02T00:32:34.445Z,15.00
2017-10-02T00:35:02.584Z,14.50
2017-10-02T00:37:31.457Z,14.73
2017-10-02T00:39:59.730Z,15.10
2017-10-02T00:42:27.802Z,15.47
2017-10-02T00:44:55.898Z,15.00
2017-10-02T00:47:24.028Z,14.50
2017-10-02T00:49:52.102Z,15.07
2017-10-02T00:52:20.214Z,13.93
2017-10-02T00:54:48.340Z,14.90
2017-10-02T00:57:16.445Z,14.37
2017-10-02T00:59:44.611Z,14.10
2017-10-02T01:02:13.504Z,13.57
2017-10-02T01:04:41.648Z,15.73
2017-10-02T01:07:09.741Z,13.90
2017-10-02T01:09:37.848Z,15.17
2017-10-02T01:12:05.953Z,15.03
2017-10-02T01:14:34.124Z,14.87
2017-10-02T01:17:02.290Z,14.57
2017-10-02T01:19:30.371Z,15.80
2017-10-02T01:21:58.517Z,14.87
2017-10-02T01:24:26.589Z,14.87
2017-10-02T01:26:54.694Z,14.77
2017-10-02T01:29:22.791Z,14.03
2017-10-02T01:31:51.659Z,15.70
2017-10-02T01:34:19.778Z,14.83
2017-10-02T01:36:47.928Z,13.40
2017-10-02T01:39:16.023Z,14.40
2017-10-02T01:41:44.141Z,14.00
2017-10-02T01:44:12.333Z,15.07
2017-10-02T01:46:40.442Z,15.00
2017-10-02T01:49:08.529Z,14.53
2017-10-02T01:51:36.687Z,15.30
2017-10-02T01:54:04.770Z,14.60
2017-10-02T01:56:33.632Z,15.40
2017-10-02T01:59:02.540Z,14.80
2017-10-02T02:01:30.656Z,14.63
2017-10-02T02:03:58.759Z,14.90
2017-10-02T02:06:27.650Z,14.30
2017-10-02T02:08:55.745Z,15.00
2017-10-02T02:11:24.621Z,14.63
2017-10-02T02:13:52.714Z,16.47
2017-10-02T02:16:20.796Z,14.60
2017-10-02T02:18:48.866Z,15.40
2017-10-02T02:21:18.569Z,13.97
2017-10-02T02:23:46.702Z,13.73
2017-10-02T02:26:14.837Z,13.97
2017-10-02T02:28:42.972Z,15.07
2017-10-02T02:31:11.121Z,15.60
2017-10-02T02:33:39.953Z,14.77
2017-10-02T02:36:08.791Z,15.57
2017-10-02T02:38:37.669Z,15.87
2017-10-02T02:41:06.533Z,14.57
2017-10-02T02:43:34.748Z,15.77
2017-10-02T02:46:02.841Z,15.23
2017-10-02T02:48:30.982Z,14.43
2017-10-02T02:50:59.103Z,13.97
2017-10-02T02:53:27.182Z,15.13
2017-10-02T02:55:55.277Z,15.03
2017-10-02T02:58:23.398Z,13.77
2017-10-02T03:00:52.244Z,15.20
2017-10-02T03:03:20.332Z,15.17
2017-10-02T03:05:49.220Z,13.40
2017-10-02T03:08:17.324Z,14.13
2017-10-02T03:10:45.445Z,14.43
2017-10-02T03:13:13.554Z,15.47
2017-10-02T03:15:41.728Z,13.73
2017-10-02T03:18:10.353Z,13.77
2017-10-02T03:20:39.350Z,15.03
2017-10-02T03:23:07.444Z,15.93
2017-10-02T03:25:36.310Z,14.23
2017-10-02T03:28:04.424Z,15.80
2017-10-02T03:30:33.291Z,14.20
2017-10-02T03:33:01.402Z,14.40
2017-10-02T03:35:29.535Z,13.67
2017-10-02T03:37:58.449Z,14.93
2017-10-02T03:40:26.566Z,14.33
2017-10-02T03:42:54.693Z,14.70
2017-10-02T03:45:23.537Z,15.37
2017-10-02T03:47:51.658Z,14.40
2017-10-02T03:50:20.800Z,14.37
2017-10-02T03:52:49.668Z,15.10
2017-10-02T03:55:17.774Z,14.60
2017-10-02T03:57:45.906Z,15.13
2017-10-02T04:00:14.876Z,13.40
2017-10-02T04:02:42.970Z,15.17
2017-10-02T04:05:11.077Z,14.50
2017-10-02T04:07:39.172Z,14.57
2017-10-02T04:10:07.328Z,14.40
2017-10-02T04:12:35.438Z,14.10
2017-10-02T04:15:04.329Z,13.57
2017-10-02T04:17:32.415Z,13.97
2017-10-02T04:20:01.278Z,14.60
2017-10-02T04:22:29.385Z,13.00
2017-10-02T04:24:57.503Z,14.30
2017-10-02T04:27:26.389Z,12.37
2017-10-02T04:29:54.522Z,14.53
2017-10-02T04:32:22.628Z,19.77
2017-10-02T04:34:50.765Z,17.10
2017-10-02T04:37:19.680Z,14.33
2017-10-02T04:39:48.582Z,13.73
2017-10-02T04:42:16.672Z,14.37
2017-10-02T04:44:44.767Z,13.57
2017-10-02T04:47:14.400Z,13.03
2017-10-02T04:49:42.519Z,14.03
2017-10-02T04:52:10.640Z,13.17
2017-10-02T04:54:39.495Z,13.30
2017-10-02T04:57:08.363Z,14.43
2017-10-02T04:59:36.526Z,13.00
2017-10-02T05:02:04.644Z,13.17
2017-10-02T05:04:32.775Z,13.20
2017-10-02T05:07:01.632Z,13.40
2017-10-02T05:09:29.733Z,13.53
2017-10-02T05:11:57.859Z,12.37
2017-10-02T05:14:25.987Z,12.27
2017-10-02T05:16:54.176Z,12.83
2017-10-02T05:19:23.347Z,12.60
2017-10-02T05:21:52.309Z,15.23
2017-10-02T05:24:20.433Z,11.63
2017-10-02T05:26:48.546Z,12.83
2017-10-02T05:29:18.961Z,10.97
2017-10-02T05:31:47.058Z,11.47
2017-10-02T05:34:15.179Z,11.57
2017-10-02T05:36:43.290Z,11.67
2017-10-02T05:39:12.192Z,11.20
2017-10-02T05:41:41.080Z,10.43
2017-10-02T05:44:09.177Z,11.30
2017-10-02T05:46:37.496Z,11.83
2017-10-02T05:49:05.717Z,12.40
2017-10-02T05:51:34.612Z,11.40
2017-10-02T05:54:02.745Z,11.47
2017-10-02T05:56:30.839Z,9.93
2017-10-02T05:58:58.991Z,11.80
2017-10-02T06:01:27.902Z,11.87
2017-10-02T06:03:55.992Z,11.80
2017-10-02T06:06:24.166Z,10.87
2017-10-02T06:08:53.153Z,10.80
2017-10-02T06:11:21.271Z,11.80
2017-10-02T06:13:50.191Z,10.80
2017-10-02T06:16:19.094Z,11.80
2017-10-02T06:18:47.214Z,10.67
2017-10-02T06:21:15.303Z,11.90
2017-10-02T06:23:44.285Z,11.80
2017-10-02T06:26:12.402Z,11.27
2017-10-02T06:28:45.664Z,12.80
2017-10-02T06:31:13.785Z,11.57
2017-10-02T06:33:41.924Z,12.70
2017-10-02T06:36:12.872Z,18.20
2017-10-02T06:38:40.952Z,19.33
2017-10-02T06:41:09.880Z,11.07
2017-10-02T06:43:38.092Z,13.33
2017-10-02T06:46:06.334Z,12.70
2017-10-02T06:48:35.336Z,11.50
2017-10-02T06:51:04.301Z,12.10
2017-10-02T06:53:32.428Z,12.13
2017-10-02T06:56:00.588Z,13.03
2017-10-02T06:58:28.746Z,12.30
2017-10-02T07:00:56.859Z,12.40
2017-10-02T07:03:25.841Z,13.30
2017-10-02T07:05:53.949Z,13.30
2017-10-02T07:08:22.747Z,11.20
2017-10-02T07:10:50.881Z,13.20
2017-10-02T07:13:19.056Z,12.60
2017-10-02T07:15:47.252Z,14.03
2017-10-02T07:18:16.148Z,13.50
2017-10-02T07:20:44.257Z,11.07
2017-10-02T07:23:12.468Z,11.17
2017-10-02T07:25:40.583Z,11.77
2017-10-02T07:28:09.488Z,12.17
2017-10-02T07:30:37.637Z,10.90
2017-10-02T07:33:05.829Z,11.87
2017-10-02T07:35:33.912Z,11.47
2017-10-02T07:38:02.029Z,10.83
2017-10-02T07:40:30.122Z,11.63
2017-10-02T07:42:58.214Z,10.50
2017-10-02T07:45:26.364Z,10.43
2017-10-02T07:47:54.437Z,10.17
2017-10-02T07:50:22.610Z,11.50
2017-10-02T07:52:50.736Z,11.23
2017-10-02T07:55:19.167Z,10.53
2017-10-02T07:57:47.396Z,11.50
2017-10-02T08:00:16.263Z,11.30
2017-10-02T08:02:45.229Z,12.13
2017-10-02T08:05:13.368Z,10.90
2017-10-02T08:07:41.460Z,10.03
2017-10-02T08:10:09.550Z,11.23
2017-10-02T08:12:38.390Z,13.20
2017-10-02T08:15:07.256Z,18.50
2017-10-02T08:17:36.922Z,12.83
2017-10-02T08:20:05.050Z,13.90
2017-10-02T08:22:33.255Z,12.80
2017-10-02T08:25:01.457Z,12.53
2017-10-02T08:27:29.576Z,13.93
2017-10-02T08:29:57.715Z,12.63
2017-10-02T08:32:25.853Z,13.50
2017-10-02T08:34:53.976Z,13.73
2017-10-02T08:37:22.907Z,13.77
2017-10-02T08:39:50.996Z,13.60
2017-10-02T08:42:19.133Z,13.20
2017-10-02T08:44:48.022Z,14.03
2017-10-02T08:47:16.912Z,13.30
2017-10-02T08:49:44.999Z,13.97
2017-10-02T08:52:13.148Z,13.80
2017-10-02T08:54:41.289Z,13.57
2017-10-02T08:57:09.607Z,13.30
2017-10-02T08:59:37.777Z,13.33
2017-10-02T09:02:06.019Z,13.43
2017-10-02T09:04:34.901Z,13.87
2017-10-02T09:07:03.756Z,14.00
2017-10-02T09:09:32.623Z,14.10
2017-10-02T09:12:02.296Z,14.07
2017-10-02T09:14:30.445Z,12.67
2017-10-02T09:16:58.592Z,13.30
2017-10-02T09:19:26.721Z,11.70
2017-10-02T09:21:54.822Z,11.10
2017-10-02T09:24:22.957Z,12.43
2017-10-02T09:26:51.072Z,11.20
2017-10-02T09:29:19.312Z,11.20
2017-10-02T09:31:47.454Z,10.80
2017-10-02T09:34:15.578Z,10.90
2017-10-02T09:36:43.713Z,10.40
2017-10-02T09:39:11.875Z,8.80
2017-10-02T09:41:39.995Z,9.40
2017-10-02T09:44:08.141Z,9.90
2017-10-02T09:46:36.249Z,9.07
2017-10-02T09:49:04.376Z,8.33
2017-10-02T09:51:32.471Z,9.10
2017-10-02T09:54:01.339Z,9.63
2017-10-02T09:56:29.466Z,9.17
2017-10-02T09:58:57.588Z,8.60
2017-10-02T10:01:26.464Z,8.77
2017-10-02T10:03:55.352Z,8.20
2017-10-02T10:06:24.857Z,9.40
2017-10-02T10:08:53.772Z,8.27
2017-10-02T10:11:23.370Z,9.13
2017-10-02T10:13:51.479Z,8.70
2017-10-02T10:16:19.615Z,8.20
2017-10-02T10:18:47.823Z,8.53
2017-10-02T10:21:15.921Z,7.90
2017-10-02T10:23:44.012Z,7.23
2017-10-02T10:26:12.129Z,7.50
2017-10-02T10:28:40.199Z,8.10
2017-10-02T10:31:08.306Z,6.60
2017-10-02T10:33:36.402Z,8.17
2017-10-02T10:36:04.468Z,7.07
2017-10-02T10:38:32.555Z,6.63
2017-10-02T10:41:00.687Z,7.87
2017-10-02T10:43:29.578Z,6.60
2017-10-02T10:45:57.747Z,6.40
2017-10-02T10:48:25.848Z,7.00
2017-10-02T10:50:54.645Z,6.70
2017-10-02T10:53:22.745Z,6.70
2017-10-02T10:55:50.860Z,6.00
2017-10-02T10:58:18.970Z,6.20
2017-10-02T11:00:47.072Z,6.17
2017-10-02T11:03:15.209Z,6.00
2017-10-02T11:05:43.333Z,5.80
2017-10-02T11:08:11.414Z,5.97
2017-10-02T11:10:39.510Z,5.40
2017-10-02T11:13:07.596Z,5.40
2017-10-02T11:15:35.674Z,5.33
2017-10-02T11:18:04.546Z,5.33
2017-10-02T11:20:32.666Z,5.20
2017-10-02T11:23:00.769Z,4.80
2017-10-02T11:25:28.936Z,4.50
2017-10-02T11:27:57.060Z,5.33
2017-10-02T11:30:25.165Z,5.27
2017-10-02T11:32:53.299Z,4.73
2017-10-02T11:35:22.899Z,3.90
2017-10-02T11:37:51.031Z,4.90
2017-10-02T11:40:19.187Z,4.97
2017-10-02T11:42:47.325Z,4.90
2017-10-02T11:45:16.311Z,4.80
2017-10-02T11:47:44.386Z,5.73
2017-10-02T11:50:12.509Z,5.07
2017-10-02T11:52:41.393Z,5.70
2017-10-02T11:55:09.518Z,7.63
2017-10-02T11:57:37.614Z,7.37
2017-10-02T12:00:05.733Z,5.43
2017-10-02T12:02:33.822Z,6.30
2017-10-02T12:05:01.905Z,6.10
2017-10-02T12:07:30.025Z,4.90
2017-10-02T12:09:58.928Z,5.93
2017-10-02T12:12:27.859Z,4.80
2017-10-02T12:14:55.991Z,4.60
2017-10-02T12:17:24.117Z,5.90
2017-10-02T12:19:52.381Z,6.60
2017-10-02T12:22:20.593Z,5.97
2017-10-02T12:24:48.717Z,6.40
2017-10-02T12:27:17.671Z,6.40
2017-10-02T12:29:45.793Z,6.70
2017-10-02T12:32:14.112Z,6.33
2017-10-02T12:34:42.229Z,7.77
2017-10-02T12:37:10.371Z,7.23
2017-10-02T12:39:38.471Z,6.73
2017-10-02T12:42:06.571Z,7.50
2017-10-02T12:44:34.724Z,7.63
2017-10-02T12:47:02.836Z,6.87
2017-10-02T12:49:30.936Z,7.90
2017-10-02T12:51:59.044Z,7.90
2017-10-02T12:54:27.121Z,8.23
2017-10-02T12:56:55.221Z,7.57
2017-10-02T12:59:23.319Z,8.93
2017-10-02T13:01:51.434Z,9.37
2017-10-02T13:04:19.516Z,8.23
2017-10-02T13:06:47.647Z,8.50
2017-10-02T13:09:15.861Z,7.90
2017-10-02T13:11:44.745Z,8.20
2017-10-02T13:14:12.873Z,8.90
2017-10-02T13:16:40.996Z,7.70
2017-10-02T13:19:09.122Z,7.20
2017-10-02T13:21:38.005Z,8.57
2017-10-02T13:24:06.852Z,8.60
2017-10-02T13:26:34.962Z,8.57
2017-10-02T13:29:03.093Z,8.17
2017-10-02T13:31:31.202Z,8.07
2017-10-02T13:34:00.048Z,8.60
2017-10-02T13:36:28.214Z,9.07
2017-10-02T13:38:57.052Z,8.63
2017-10-02T13:41:25.390Z,8.70
2017-10-02T13:43:54.238Z,9.97
2017-10-02T13:46:23.098Z,7.83
2017-10-02T13:48:51.199Z,9.50
2017-10-02T13:51:19.320Z,9.30
2017-10-02T13:53:47.491Z,9.03
2017-10-02T13:56:15.551Z,8.47
2017-10-02T13:58:43.670Z,9.50
2017-10-02T14:01:11.763Z,9.47
2017-10-02T14:03:39.895Z,9.57
2017-10-02T14:06:08.766Z,10.00
2017-10-02T14:08:36.865Z,8.90
2017-10-02T14:11:05.003Z,8.30
2017-10-02T14:13:33.915Z,11.60
2017-10-02T14:16:02.797Z,8.30
2017-10-02T14:18:30.923Z,9.23
2017-10-02T14:20:59.014Z,8.77
2017-10-02T14:23:27.106Z,9.10
2017-10-02T14:25:55.961Z,10.67
2017-10-02T14:28:24.702Z,9.50
2017-10-02T14:30:52.805Z,8.30
2017-10-02T14:33:21.831Z,9.93
2017-10-02T14:35:50.690Z,9.13
2017-10-02T14:38:18.804Z,8.90
2017-10-02T14:40:46.881Z,9.10
2017-10-02T14:43:14.969Z,9.80
2017-10-02T14:45:43.106Z,9.50
2017-10-02T14:48:11.246Z,9.27
2017-10-02T14:50:39.354Z,9.37
2017-10-02T14:53:07.458Z,9.53
2017-10-02T14:55:35.565Z,10.77
2017-10-02T14:58:03.693Z,10.67
2017-10-02T15:00:32.307Z,9.83
2017-10-02T15:03:00.533Z,10.60
2017-10-02T15:05:28.602Z,11.70
2017-10-02T15:07:56.688Z,10.50
2017-10-02T15:10:25.540Z,12.40
2017-10-02T15:12:53.645Z,10.93
2017-10-02T15:15:21.769Z,10.00
2017-10-02T15:17:49.925Z,21.23
2017-10-02T15:20:18.028Z,10.30
2017-10-02T15:22:46.135Z,17.33
2017-10-02T15:25:15.340Z,14.73
2017-10-02T15:27:44.224Z,12.50
2017-10-02T15:30:12.315Z,12.80
2017-10-02T15:32:40.481Z,10.70
2017-10-02T15:35:08.599Z,12.37
2017-10-02T15:37:36.671Z,11.60
2017-10-02T15:40:05.537Z,11.43
2017-10-02T15:42:33.656Z,10.90
2017-10-02T15:45:01.760Z,11.20
2017-10-02T15:47:29.890Z,12.47
2017-10-02T15:49:58.050Z,11.17
2017-10-02T15:52:26.193Z,13.30
2017-10-02T15:54:54.284Z,14.10
2017-10-02T15:57:22.413Z,12.17
2017-10-02T15:59:50.625Z,12.23
2017-10-02T16:02:19.056Z,12.03
2017-10-02T16:04:47.778Z,10.60
2017-10-02T16:07:15.855Z,15.20
2017-10-02T16:09:44.020Z,15.90
2017-10-02T16:12:12.118Z,13.20
2017-10-02T16:14:40.253Z,13.27
2017-10-02T16:17:08.366Z,12.37
2017-10-02T16:19:37.257Z,12.30
2017-10-02T16:22:06.159Z,12.37
2017-10-02T16:24:34.264Z,11.97
2017-10-02T16:27:02.371Z,12.53
2017-10-02T16:29:30.481Z,13.30
2017-10-02T16:31:58.626Z,13.60
2017-10-02T16:34:27.553Z,14.90
2017-10-02T16:36:55.636Z,12.80
2017-10-02T16:39:24.783Z,14.87
2017-10-02T16:41:52.877Z,14.53
2017-10-02T16:44:20.990Z,14.07
2017-10-02T16:46:49.102Z,14.70
2017-10-02T16:49:17.253Z,14.30
2017-10-02T16:51:46.113Z,15.87
2017-10-02T16:54:14.207Z,18.00
2017-10-02T16:56:43.027Z,20.77
2017-10-02T16:59:11.123Z,15.63
2017-10-02T17:01:39.283Z,14.73
2017-10-02T17:04:09.165Z,12.83
2017-10-02T17:06:37.259Z,12.80
2017-10-02T17:09:05.377Z,12.40
2017-10-02T17:11:34.273Z,13.50
2017-10-02T17:14:02.353Z,11.10
2017-10-02T17:16:31.193Z,12.50
2017-10-02T17:18:59.314Z,11.43
2017-10-02T17:21:28.737Z,17.20
2017-10-02T17:23:58.453Z,11.40
2017-10-02T17:26:26.643Z,12.53
2017-10-02T17:28:54.779Z,12.03
2017-10-02T17:31:24.167Z,13.90
2017-10-02T17:33:52.328Z,14.67
2017-10-02T17:36:20.424Z,15.17
2017-10-02T17:38:48.551Z,14.40
2017-10-02T17:41:16.625Z,13.40
2017-10-02T17:43:44.739Z,13.40
2017-10-02T17:46:18.627Z,14.33
2017-10-02T17:48:47.849Z,11.43
2017-10-02T17:51:15.949Z,12.60
2017-10-02T17:53:44.456Z,11.70
2017-10-02T17:56:13.423Z,10.87
2017-10-02T17:58:41.502Z,11.33
2017-10-02T18:01:10.374Z,9.63
2017-10-02T18:03:38.456Z,11.50
2017-10-02T18:06:06.568Z,12.13
2017-10-02T18:08:34.655Z,11.37
2017-10-02T18:11:02.726Z,12.87
2017-10-02T18:13:31.597Z,11.13
2017-10-02T18:15:59.687Z,14.80
2017-10-02T18:18:27.878Z,13.87
2017-10-02T18:20:55.966Z,19.40
2017-10-02T18:23:24.166Z,13.30
2017-10-02T18:25:53.187Z,22.70
2017-10-02T18:28:21.272Z,13.53
2017-10-02T18:30:49.409Z,12.30
2017-10-02T18:33:17.526Z,13.37
2017-10-02T18:35:45.656Z,13.63
2017-10-02T18:38:14.584Z,11.60
2017-10-02T18:40:43.481Z,14.13
2017-10-02T18:43:13.089Z,13.97
2017-10-02T18:45:41.722Z,12.20
2017-10-02T18:48:09.839Z,13.60
2017-10-02T18:50:37.962Z,12.03
2017-10-02T18:53:06.034Z,13.87
2017-10-02T18:55:34.156Z,12.20
2017-10-02T18:58:02.231Z,14.00
2017-10-02T19:00:31.128Z,13.70
2017-10-02T19:02:59.216Z,13.07
2017-10-02T19:05:28.427Z,13.90
2017-10-02T19:07:56.573Z,14.97
2017-10-02T19:10:24.682Z,15.67
2017-10-02T19:12:53.565Z,14.93
2017-10-02T19:15:21.703Z,16.33
2017-10-02T19:17:49.829Z,15.10
2017-10-02T19:20:18.000Z,14.87
2017-10-02T19:22:46.121Z,35.87
2017-10-02T19:25:14.940Z,68.00
2017-10-02T19:27:43.036Z,60.70
2017-10-02T19:30:11.159Z,41.90
2017-10-02T19:32:39.266Z,33.10
2017-10-02T19:35:07.404Z,46.03
2017-10-02T19:37:36.753Z,50.70
2017-10-02T19:40:04.880Z,26.90
2017-10-02T19:42:32.999Z,18.37
2017-10-02T19:45:01.117Z,17.60
2017-10-02T19:47:29.264Z,17.27
2017-10-02T19:49:58.183Z,15.07
2017-10-02T19:52:27.090Z,24.10
2017-10-02T19:54:55.199Z,17.53
2017-10-02T19:57:23.298Z,14.10
2017-10-02T19:59:51.487Z,10.87
2017-10-02T20:02:20.374Z,11.17
2017-10-02T20:04:49.118Z,11.43
2017-10-02T20:07:17.246Z,11.40
2017-10-02T20:09:45.348Z,13.03
2017-10-02T20:12:13.473Z,15.70
2017-10-02T20:14:41.585Z,13.07
2017-10-02T20:17:09.750Z,16.43
2017-10-02T20:19:37.834Z,10.53
2017-10-02T20:22:05.947Z,9.60
2017-10-02T20:24:34.016Z,10.80
2017-10-02T20:27:02.126Z,8.47
2017-10-02T20:29:30.244Z,7.10
2017-10-02T20:31:58.369Z,7.80
2017-10-02T20:34:26.493Z,7.87
2017-10-02T20:36:54.914Z,9.07
2017-10-02T20:39:23.788Z,7.83
2017-10-02T20:41:52.894Z,7.13
2017-10-02T20:44:21.140Z,6.30
2017-10-02T20:46:49.223Z,6.60
2017-10-02T20:49:17.309Z,5.50
2017-10-02T20:51:45.419Z,6.93
2017-10-02T20:54:13.646Z,7.10
2017-10-02T20:56:41.769Z,5.87
2017-10-02T20:59:09.856Z,5.83
2017-10-02T21:01:38.743Z,6.13
2017-10-02T21:04:07.602Z,7.40
2017-10-02T21:06:36.462Z,6.33
2017-10-02T21:09:04.560Z,6.80
2017-10-02T21:11:33.441Z,6.03
2017-10-02T21:14:02.175Z,5.53
2017-10-02T21:16:30.280Z,5.53
2017-10-02T21:18:58.361Z,5.30
2017-10-02T21:21:27.239Z,6.10
2017-10-02T21:23:55.314Z,6.70
2017-10-02T21:26:23.448Z,6.17
2017-10-02T21:28:52.313Z,6.43
2017-10-02T21:31:20.418Z,6.50
2017-10-02T21:33:49.293Z,8.00
2017-10-02T21:36:17.374Z,5.63
2017-10-02T21:38:45.493Z,7.30
2017-10-02T21:41:13.604Z,6.67
2017-10-02T21:43:42.504Z,6.20
2017-10-02T21:46:10.584Z,6.60
2017-10-02T21:48:38.781Z,5.30
2017-10-02T21:51:06.900Z,6.13
2017-10-02T21:53:35.002Z,5.93
2017-10-02T21:56:03.114Z,6.50
2017-10-02T21:58:31.988Z,8.93
2017-10-02T22:01:00.113Z,6.57
2017-10-02T22:03:28.234Z,5.07
2017-10-02T22:05:56.850Z,6.27
2017-10-02T22:08:25.199Z,5.13
2017-10-02T22:10:53.286Z,8.33
2017-10-02T22:13:22.427Z,7.10
2017-10-02T22:15:51.292Z,6.27
2017-10-02T22:18:19.427Z,4.37
2017-10-02T22:20:47.565Z,7.93
2017-10-02T22:23:15.673Z,6.23
2017-10-02T22:25:43.807Z,5.90
2017-10-02T22:28:13.409Z,6.53
2017-10-02T22:30:41.524Z,5.47
2017-10-02T22:33:09.861Z,4.77
2017-10-02T22:35:37.952Z,4.53
2017-10-02T22:38:06.740Z,5.80
2017-10-02T22:40:34.831Z,5.60
2017-10-02T22:43:03.291Z,4.90
2017-10-02T22:45:31.462Z,5.43
2017-10-02T22:47:59.604Z,5.73
2017-10-02T22:50:27.713Z,4.90
2017-10-02T22:52:55.810Z,5.50
2017-10-02T22:55:24.008Z,6.10
2017-10-02T22:57:52.148Z,4.57
2017-10-02T23:00:20.255Z,5.07
2017-10-02T23:02:48.352Z,5.13
2017-10-02T23:05:16.446Z,5.33
2017-10-02T23:07:44.546Z,5.63
2017-10-02T23:10:13.427Z,6.20
2017-10-02T23:12:41.509Z,6.13
2017-10-02T23:15:10.386Z,5.40
2017-10-02T23:17:38.668Z,5.87
2017-10-02T23:20:06.868Z,6.20
2017-10-02T23:22:35.746Z,5.20
2017-10-02T23:25:03.863Z,5.80
2017-10-02T23:27:32.000Z,6.80
2017-10-02T23:30:00.113Z,7.17
2017-10-02T23:32:29.033Z,5.73
2017-10-02T23:34:57.191Z,5.53
2017-10-02T23:37:25.295Z,4.57
2017-10-02T23:39:54.897Z,5.50
2017-10-02T23:42:23.092Z,4.73
2017-10-02T23:44:52.098Z,5.30
2017-10-02T23:47:20.204Z,5.70
2017-10-02T23:49:48.309Z,4.77
2017-10-02T23:52:16.411Z,4.67
2017-10-02T23:54:44.555Z,4.47
2017-10-02T23:57:13.840Z,4.60
2017-10-02T23:59:42.734Z,5.10
